MDST

Cibao International Airport

Santiago, Dominican Republic
TAF MDST 191600Z 1918/2018 12012KT 9999 SCT024
Issued Valid From Valid To
Nov-19 @ 16:00 UTC
(6 hours ago)
Nov-19 @ 18:00 UTC
(4 hours ago)
Nov-20 @ 18:00 UTC
(in 20 hours)
Nov-19 @ 18:00 to Nov-20 @ 18:00
TAF MDST 191600Z 1918/2018 12012KT 9999 SCT024
Wind Visibility Clouds
120° at 12 knots 10,000+ meters
  • Scattered at 2,400' AGL
TAF MDST 191600Z 1918/2018 12012KT 9999 SCT024
Issued Nov-19 @ 16:00 UTC
(6 hours ago)
Valid From Nov-19 @ 18:00 UTC
(4 hours ago)
Valid To Nov-20 @ 18:00 UTC
(in 20 hours)
Nov-19 @ 18:00 - Nov-20 @ 18:00
Wind Visibility
120° at 12 knots 10,000+ meters
Clouds
  • Scattered at 2,400' AGL